sensor_id;sensor_type;location;lat;lon;timestamp;temperature;humidity
83770;DHT22;73763;48.936;9.300;2024-02-28T00:01:24;7.00;99.70
83770;DHT22;73763;48.936;9.300;2024-02-28T00:03:50;7.00;99.60
83770;DHT22;73763;48.936;9.300;2024-02-28T00:06:16;7.00;99.50
83770;DHT22;73763;48.936;9.300;2024-02-28T00:08:42;7.00;99.50
83770;DHT22;73763;48.936;9.300;2024-02-28T00:11:08;7.00;99.30
83770;DHT22;73763;48.936;9.300;2024-02-28T00:13:33;7.00;99.20
83770;DHT22;73763;48.936;9.300;2024-02-28T00:15:59;7.00;99.00
83770;DHT22;73763;48.936;9.300;2024-02-28T00:18:24;7.00;99.10
83770;DHT22;73763;48.936;9.300;2024-02-28T00:20:50;7.10;99.00
83770;DHT22;73763;48.936;9.300;2024-02-28T00:23:15;7.00;99.00
83770;DHT22;73763;48.936;9.300;2024-02-28T00:25:41;7.00;98.70
83770;DHT22;73763;48.936;9.300;2024-02-28T00:28:06;7.00;98.60
83770;DHT22;73763;48.936;9.300;2024-02-28T00:30:32;7.00;98.60
83770;DHT22;73763;48.936;9.300;2024-02-28T00:32:57;7.10;98.70
83770;DHT22;73763;48.936;9.300;2024-02-28T00:35:23;7.10;98.60
83770;DHT22;73763;48.936;9.300;2024-02-28T00:37:50;7.10;98.40
83770;DHT22;73763;48.936;9.300;2024-02-28T00:40:15;7.10;98.30
83770;DHT22;73763;48.936;9.300;2024-02-28T00:42:41;7.00;98.40
83770;DHT22;73763;48.936;9.300;2024-02-28T00:45:08;7.00;98.60
83770;DHT22;73763;48.936;9.300;2024-02-28T00:47:34;7.00;98.70
83770;DHT22;73763;48.936;9.300;2024-02-28T00:49:59;7.00;98.90
83770;DHT22;73763;48.936;9.300;2024-02-28T00:52:25;6.90;99.10
83770;DHT22;73763;48.936;9.300;2024-02-28T00:54:51;6.90;99.20
83770;DHT22;73763;48.936;9.300;2024-02-28T00:57:16;6.90;99.30
83770;DHT22;73763;48.936;9.300;2024-02-28T00:59:42;6.90;99.40
83770;DHT22;73763;48.936;9.300;2024-02-28T01:02:07;6.80;99.40
83770;DHT22;73763;48.936;9.300;2024-02-28T01:04:33;6.80;99.50
83770;DHT22;73763;48.936;9.300;2024-02-28T01:06:58;6.80;99.50
83770;DHT22;73763;48.936;9.300;2024-02-28T01:09:24;6.80;99.60
83770;DHT22;73763;48.936;9.300;2024-02-28T01:11:49;6.80;99.70
83770;DHT22;73763;48.936;9.300;2024-02-28T01:14:15;6.80;99.70
83770;DHT22;73763;48.936;9.300;2024-02-28T01:16:40;6.80;99.70
83770;DHT22;73763;48.936;9.300;2024-02-28T01:19:06;6.90;99.60
83770;DHT22;73763;48.936;9.300;2024-02-28T01:21:31;6.90;99.50
83770;DHT22;73763;48.936;9.300;2024-02-28T01:23:57;6.90;99.40
83770;DHT22;73763;48.936;9.300;2024-02-28T01:26:22;6.90;99.40
83770;DHT22;73763;48.936;9.300;2024-02-28T01:28:48;6.90;99.50
83770;DHT22;73763;48.936;9.300;2024-02-28T01:31:14;6.90;99.40
83770;DHT22;73763;48.936;9.300;2024-02-28T01:33:39;7.00;99.20
83770;DHT22;73763;48.936;9.300;2024-02-28T01:36:06;7.00;99.00
83770;DHT22;73763;48.936;9.300;2024-02-28T01:38:32;7.00;98.90
83770;DHT22;73763;48.936;9.300;2024-02-28T01:40:57;6.90;99.00
83770;DHT22;73763;48.936;9.300;2024-02-28T01:43:23;6.90;99.00
83770;DHT22;73763;48.936;9.300;2024-02-28T01:45:49;6.90;99.10
83770;DHT22;73763;48.936;9.300;2024-02-28T01:48:16;6.80;99.20
83770;DHT22;73763;48.936;9.300;2024-02-28T01:50:41;6.90;98.90
83770;DHT22;73763;48.936;9.300;2024-02-28T01:53:09;6.80;99.00
83770;DHT22;73763;48.936;9.300;2024-02-28T01:55:38;6.80;98.90
83770;DHT22;73763;48.936;9.300;2024-02-28T01:58:04;6.90;98.90
83770;DHT22;73763;48.936;9.300;2024-02-28T02:00:31;6.90;98.80
83770;DHT22;73763;48.936;9.300;2024-02-28T02:02:57;6.80;98.80
83770;DHT22;73763;48.936;9.300;2024-02-28T02:05:23;6.80;98.70
83770;DHT22;73763;48.936;9.300;2024-02-28T02:07:48;6.70;98.80
83770;DHT22;73763;48.936;9.300;2024-02-28T02:10:15;6.70;98.90
83770;DHT22;73763;48.936;9.300;2024-02-28T02:12:40;6.80;99.10
83770;DHT22;73763;48.936;9.300;2024-02-28T02:15:06;6.70;99.10
83770;DHT22;73763;48.936;9.300;2024-02-28T02:17:32;6.70;99.20
83770;DHT22;73763;48.936;9.300;2024-02-28T02:19:57;6.70;99.30
83770;DHT22;73763;48.936;9.300;2024-02-28T02:22:23;6.70;99.40
83770;DHT22;73763;48.936;9.300;2024-02-28T02:24:51;6.60;99.50
83770;DHT22;73763;48.936;9.300;2024-02-28T02:27:16;6.70;99.40
83770;DHT22;73763;48.936;9.300;2024-02-28T02:29:42;6.70;99.20
83770;DHT22;73763;48.936;9.300;2024-02-28T02:32:07;6.70;99.00
83770;DHT22;73763;48.936;9.300;2024-02-28T02:34:33;6.70;99.00
83770;DHT22;73763;48.936;9.300;2024-02-28T02:36:58;6.70;99.00
83770;DHT22;73763;48.936;9.300;2024-02-28T02:39:24;6.70;99.00
83770;DHT22;73763;48.936;9.300;2024-02-28T02:41:49;6.70;99.10
83770;DHT22;73763;48.936;9.300;2024-02-28T02:44:15;6.70;99.20
83770;DHT22;73763;48.936;9.300;2024-02-28T02:46:40;6.60;99.20
83770;DHT22;73763;48.936;9.300;2024-02-28T02:49:06;6.60;99.10
83770;DHT22;73763;48.936;9.300;2024-02-28T02:51:31;6.60;99.10
83770;DHT22;73763;48.936;9.300;2024-02-28T02:53:57;6.70;99.20
83770;DHT22;73763;48.936;9.300;2024-02-28T02:56:22;6.70;99.30
83770;DHT22;73763;48.936;9.300;2024-02-28T02:58:48;6.70;99.20
83770;DHT22;73763;48.936;9.300;2024-02-28T03:01:13;6.60;99.20
83770;DHT22;73763;48.936;9.300;2024-02-28T03:03:39;6.60;99.20
83770;DHT22;73763;48.936;9.300;2024-02-28T03:06:06;6.60;99.30
83770;DHT22;73763;48.936;9.300;2024-02-28T03:08:31;6.60;99.30
83770;DHT22;73763;48.936;9.300;2024-02-28T03:10:57;6.60;99.30
83770;DHT22;73763;48.936;9.300;2024-02-28T03:13:23;6.60;99.40
83770;DHT22;73763;48.936;9.300;2024-02-28T03:15:48;6.60;99.30
83770;DHT22;73763;48.936;9.300;2024-02-28T03:18:14;6.70;99.40
83770;DHT22;73763;48.936;9.300;2024-02-28T03:20:39;6.60;99.60
83770;DHT22;73763;48.936;9.300;2024-02-28T03:23:05;6.60;99.40
83770;DHT22;73763;48.936;9.300;2024-02-28T03:25:32;6.60;99.50
83770;DHT22;73763;48.936;9.300;2024-02-28T03:27:58;6.60;99.20
83770;DHT22;73763;48.936;9.300;2024-02-28T03:30:23;6.60;99.10
83770;DHT22;73763;48.936;9.300;2024-02-28T03:32:49;6.60;99.00
83770;DHT22;73763;48.936;9.300;2024-02-28T03:35:14;6.60;99.10
83770;DHT22;73763;48.936;9.300;2024-02-28T03:37:40;6.50;99.10
83770;DHT22;73763;48.936;9.300;2024-02-28T03:40:06;6.60;99.10
83770;DHT22;73763;48.936;9.300;2024-02-28T03:42:32;6.60;99.10
83770;DHT22;73763;48.936;9.300;2024-02-28T03:44:57;6.60;99.40
83770;DHT22;73763;48.936;9.300;2024-02-28T03:47:23;6.50;99.20
83770;DHT22;73763;48.936;9.300;2024-02-28T03:49:48;6.50;99.30
83770;DHT22;73763;48.936;9.300;2024-02-28T03:52:14;6.50;99.50
83770;DHT22;73763;48.936;9.300;2024-02-28T03:54:42;6.50;99.80
83770;DHT22;73763;48.936;9.300;2024-02-28T03:57:08;6.40;99.50
83770;DHT22;73763;48.936;9.300;2024-02-28T03:59:33;6.40;99.50
83770;DHT22;73763;48.936;9.300;2024-02-28T04:01:59;6.50;99.30
83770;DHT22;73763;48.936;9.300;2024-02-28T04:04:24;6.50;99.20
83770;DHT22;73763;48.936;9.300;2024-02-28T04:06:50;6.50;99.20
83770;DHT22;73763;48.936;9.300;2024-02-28T04:09:15;6.50;99.20
83770;DHT22;73763;48.936;9.300;2024-02-28T04:11:41;6.50;99.20
83770;DHT22;73763;48.936;9.300;2024-02-28T04:14:06;6.40;99.20
83770;DHT22;73763;48.936;9.300;2024-02-28T04:16:32;6.40;99.30
83770;DHT22;73763;48.936;9.300;2024-02-28T04:18:57;6.50;99.50
83770;DHT22;73763;48.936;9.300;2024-02-28T04:21:23;6.50;99.50
83770;DHT22;73763;48.936;9.300;2024-02-28T04:23:48;6.40;99.50
83770;DHT22;73763;48.936;9.300;2024-02-28T04:26:14;6.40;99.60
83770;DHT22;73763;48.936;9.300;2024-02-28T04:28:41;6.40;99.80
83770;DHT22;73763;48.936;9.300;2024-02-28T04:31:07;6.40;99.70
83770;DHT22;73763;48.936;9.300;2024-02-28T04:33:33;6.40;99.70
83770;DHT22;73763;48.936;9.300;2024-02-28T04:35:58;6.40;99.80
83770;DHT22;73763;48.936;9.300;2024-02-28T04:38:24;6.40;99.90
83770;DHT22;73763;48.936;9.300;2024-02-28T04:40:49;6.40;99.90
83770;DHT22;73763;48.936;9.300;2024-02-28T04:43:15;6.40;99.90
83770;DHT22;73763;48.936;9.300;2024-02-28T04:45:40;6.30;99.90
83770;DHT22;73763;48.936;9.300;2024-02-28T04:48:06;6.30;99.90
83770;DHT22;73763;48.936;9.300;2024-02-28T04:50:31;6.20;99.90
83770;DHT22;73763;48.936;9.300;2024-02-28T04:52:57;6.20;99.90
83770;DHT22;73763;48.936;9.300;2024-02-28T04:55:22;6.10;99.90
83770;DHT22;73763;48.936;9.300;2024-02-28T04:57:48;6.10;99.90
83770;DHT22;73763;48.936;9.300;2024-02-28T05:00:14;6.10;99.90
83770;DHT22;73763;48.936;9.300;2024-02-28T05:02:40;6.10;99.90
83770;DHT22;73763;48.936;9.300;2024-02-28T05:05:06;6.10;99.90
83770;DHT22;73763;48.936;9.300;2024-02-28T05:07:31;6.10;99.90
83770;DHT22;73763;48.936;9.300;2024-02-28T05:09:57;6.00;99.90
83770;DHT22;73763;48.936;9.300;2024-02-28T05:12:22;6.00;99.90
83770;DHT22;73763;48.936;9.300;2024-02-28T05:14:48;6.00;99.90
83770;DHT22;73763;48.936;9.300;2024-02-28T05:17:13;6.00;99.90
83770;DHT22;73763;48.936;9.300;2024-02-28T05:19:39;6.00;99.90
83770;DHT22;73763;48.936;9.300;2024-02-28T05:22:05;5.90;99.90
83770;DHT22;73763;48.936;9.300;2024-02-28T05:24:30;5.90;99.90
83770;DHT22;73763;48.936;9.300;2024-02-28T05:26:56;5.90;99.90
83770;DHT22;73763;48.936;9.300;2024-02-28T05:29:21;5.90;99.90
83770;DHT22;73763;48.936;9.300;2024-02-28T05:31:47;5.80;99.90
83770;DHT22;73763;48.936;9.300;2024-02-28T05:34:12;5.80;99.90
83770;DHT22;73763;48.936;9.300;2024-02-28T05:36:40;5.80;99.90
83770;DHT22;73763;48.936;9.300;2024-02-28T05:39:05;5.70;99.90
83770;DHT22;73763;48.936;9.300;2024-02-28T05:41:31;5.70;99.90
83770;DHT22;73763;48.936;9.300;2024-02-28T05:43:56;5.70;99.90
83770;DHT22;73763;48.936;9.300;2024-02-28T05:46:22;5.70;99.90
83770;DHT22;73763;48.936;9.300;2024-02-28T05:48:48;5.70;99.90
83770;DHT22;73763;48.936;9.300;2024-02-28T05:51:14;5.70;99.90
83770;DHT22;73763;48.936;9.300;2024-02-28T05:53:40;5.70;99.90
83770;DHT22;73763;48.936;9.300;2024-02-28T05:56:06;5.70;99.90
83770;DHT22;73763;48.936;9.300;2024-02-28T05:58:32;5.80;99.90
83770;DHT22;73763;48.936;9.300;2024-02-28T06:00:58;5.80;99.90
83770;DHT22;73763;48.936;9.300;2024-02-28T06:03:23;5.80;99.90
83770;DHT22;73763;48.936;9.300;2024-02-28T06:05:49;5.80;99.90
83770;DHT22;73763;48.936;9.300;2024-02-28T06:08:14;5.80;99.90
83770;DHT22;73763;48.936;9.300;2024-02-28T06:10:40;5.70;99.90
83770;DHT22;73763;48.936;9.300;2024-02-28T06:13:05;5.80;99.90
83770;DHT22;73763;48.936;9.300;2024-02-28T06:15:31;5.80;99.90
83770;DHT22;73763;48.936;9.300;2024-02-28T06:17:57;5.70;99.90
83770;DHT22;73763;48.936;9.300;2024-02-28T06:20:22;5.80;99.90
83770;DHT22;73763;48.936;9.300;2024-02-28T06:22:48;5.70;99.90
83770;DHT22;73763;48.936;9.300;2024-02-28T06:25:13;5.70;99.90
83770;DHT22;73763;48.936;9.300;2024-02-28T06:27:39;5.70;99.90
83770;DHT22;73763;48.936;9.300;2024-02-28T06:30:06;5.70;99.90
83770;DHT22;73763;48.936;9.300;2024-02-28T06:32:32;5.70;99.90
83770;DHT22;73763;48.936;9.300;2024-02-28T06:34:57;5.70;99.90
83770;DHT22;73763;48.936;9.300;2024-02-28T06:37:23;5.70;99.90
83770;DHT22;73763;48.936;9.300;2024-02-28T06:39:48;5.70;99.90
83770;DHT22;73763;48.936;9.300;2024-02-28T06:42:14;5.70;99.90
83770;DHT22;73763;48.936;9.300;2024-02-28T06:44:39;5.80;99.90
83770;DHT22;73763;48.936;9.300;2024-02-28T06:47:05;5.80;99.90
83770;DHT22;73763;48.936;9.300;2024-02-28T06:49:30;5.90;99.90
83770;DHT22;73763;48.936;9.300;2024-02-28T06:51:56;5.90;99.90
83770;DHT22;73763;48.936;9.300;2024-02-28T06:54:21;5.90;99.90
83770;DHT22;73763;48.936;9.300;2024-02-28T06:56:47;6.00;99.90
83770;DHT22;73763;48.936;9.300;2024-02-28T06:59:12;6.00;99.90
83770;DHT22;73763;48.936;9.300;2024-02-28T07:01:38;6.00;99.90
83770;DHT22;73763;48.936;9.300;2024-02-28T07:04:03;6.10;99.90
83770;DHT22;73763;48.936;9.300;2024-02-28T07:06:29;6.10;99.90
83770;DHT22;73763;48.936;9.300;2024-02-28T07:08:54;6.10;99.90
83770;DHT22;73763;48.936;9.300;2024-02-28T07:11:20;6.20;99.90
83770;DHT22;73763;48.936;9.300;2024-02-28T07:13:45;6.30;99.90
83770;DHT22;73763;48.936;9.300;2024-02-28T07:16:11;6.40;99.90
83770;DHT22;73763;48.936;9.300;2024-02-28T07:18:36;6.30;99.90
83770;DHT22;73763;48.936;9.300;2024-02-28T07:21:02;6.30;99.90
83770;DHT22;73763;48.936;9.300;2024-02-28T07:23:27;6.30;99.90
83770;DHT22;73763;48.936;9.300;2024-02-28T07:25:53;6.30;99.90
83770;DHT22;73763;48.936;9.300;2024-02-28T07:28:18;6.30;99.90
83770;DHT22;73763;48.936;9.300;2024-02-28T07:30:44;6.40;99.90
83770;DHT22;73763;48.936;9.300;2024-02-28T07:33:10;6.40;99.90
83770;DHT22;73763;48.936;9.300;2024-02-28T07:35:46;6.40;99.80
83770;DHT22;73763;48.936;9.300;2024-02-28T07:38:11;6.40;99.80
83770;DHT22;73763;48.936;9.300;2024-02-28T07:40:37;6.40;99.80
83770;DHT22;73763;48.936;9.300;2024-02-28T07:43:02;6.50;99.70
83770;DHT22;73763;48.936;9.300;2024-02-28T07:45:28;6.50;99.70
83770;DHT22;73763;48.936;9.300;2024-02-28T07:47:53;6.50;99.70
83770;DHT22;73763;48.936;9.300;2024-02-28T07:50:19;6.40;99.70
83770;DHT22;73763;48.936;9.300;2024-02-28T07:52:44;6.40;99.70
83770;DHT22;73763;48.936;9.300;2024-02-28T07:55:10;6.50;99.70
83770;DHT22;73763;48.936;9.300;2024-02-28T07:57:35;6.40;99.80
83770;DHT22;73763;48.936;9.300;2024-02-28T08:00:03;6.50;99.60
83770;DHT22;73763;48.936;9.300;2024-02-28T08:02:29;6.50;99.60
83770;DHT22;73763;48.936;9.300;2024-02-28T08:04:54;6.50;99.60
83770;DHT22;73763;48.936;9.300;2024-02-28T08:07:20;6.60;99.50
83770;DHT22;73763;48.936;9.300;2024-02-28T08:09:45;6.60;99.40
83770;DHT22;73763;48.936;9.300;2024-02-28T08:12:11;6.70;99.50
83770;DHT22;73763;48.936;9.300;2024-02-28T08:14:36;6.70;99.30
83770;DHT22;73763;48.936;9.300;2024-02-28T08:17:02;6.70;99.40
83770;DHT22;73763;48.936;9.300;2024-02-28T08:19:27;6.70;99.20
83770;DHT22;73763;48.936;9.300;2024-02-28T08:21:53;6.80;99.10
83770;DHT22;73763;48.936;9.300;2024-02-28T08:24:18;6.70;98.70
83770;DHT22;73763;48.936;9.300;2024-02-28T08:26:44;6.70;98.80
83770;DHT22;73763;48.936;9.300;2024-02-28T08:29:09;6.70;98.90
83770;DHT22;73763;48.936;9.300;2024-02-28T08:31:40;6.70;99.00
83770;DHT22;73763;48.936;9.300;2024-02-28T08:34:06;6.70;98.70
83770;DHT22;73763;48.936;9.300;2024-02-28T08:36:31;6.70;98.80
83770;DHT22;73763;48.936;9.300;2024-02-28T08:38:57;6.70;98.90
83770;DHT22;73763;48.936;9.300;2024-02-28T08:41:22;6.70;98.80
83770;DHT22;73763;48.936;9.300;2024-02-28T08:43:48;6.80;98.70
83770;DHT22;73763;48.936;9.300;2024-02-28T08:46:16;6.80;98.70
83770;DHT22;73763;48.936;9.300;2024-02-28T08:48:42;6.80;98.70
83770;DHT22;73763;48.936;9.300;2024-02-28T08:51:07;6.90;98.60
83770;DHT22;73763;48.936;9.300;2024-02-28T08:53:33;6.90;98.60
83770;DHT22;73763;48.936;9.300;2024-02-28T08:55:58;7.00;98.40
83770;DHT22;73763;48.936;9.300;2024-02-28T08:58:24;7.00;98.40
83770;DHT22;73763;48.936;9.300;2024-02-28T09:00:49;7.00;98.20
83770;DHT22;73763;48.936;9.300;2024-02-28T09:03:15;7.10;98.00
83770;DHT22;73763;48.936;9.300;2024-02-28T09:05:40;7.10;98.10
83770;DHT22;73763;48.936;9.300;2024-02-28T09:08:06;7.20;97.90
83770;DHT22;73763;48.936;9.300;2024-02-28T09:10:31;7.30;97.60
83770;DHT22;73763;48.936;9.300;2024-02-28T09:12:57;7.30;97.40
83770;DHT22;73763;48.936;9.300;2024-02-28T09:15:22;7.30;97.00
83770;DHT22;73763;48.936;9.300;2024-02-28T09:17:48;7.40;97.00
83770;DHT22;73763;48.936;9.300;2024-02-28T09:20:13;7.40;97.00
83770;DHT22;73763;48.936;9.300;2024-02-28T09:22:39;7.50;96.90
83770;DHT22;73763;48.936;9.300;2024-02-28T09:25:06;7.50;96.80
83770;DHT22;73763;48.936;9.300;2024-02-28T09:27:31;7.70;96.70
83770;DHT22;73763;48.936;9.300;2024-02-28T09:29:57;7.70;96.20
83770;DHT22;73763;48.936;9.300;2024-02-28T09:32:22;7.80;96.10
83770;DHT22;73763;48.936;9.300;2024-02-28T09:34:48;7.80;95.90
83770;DHT22;73763;48.936;9.300;2024-02-28T09:37:14;7.80;96.00
83770;DHT22;73763;48.936;9.300;2024-02-28T09:39:40;7.90;96.00
83770;DHT22;73763;48.936;9.300;2024-02-28T09:42:06;7.90;95.80
83770;DHT22;73763;48.936;9.300;2024-02-28T09:44:33;7.90;95.60
83770;DHT22;73763;48.936;9.300;2024-02-28T09:46:59;7.90;95.60
83770;DHT22;73763;48.936;9.300;2024-02-28T09:49:26;8.00;95.60
83770;DHT22;73763;48.936;9.300;2024-02-28T09:51:52;8.10;95.50
83770;DHT22;73763;48.936;9.300;2024-02-28T09:54:17;8.10;95.50
83770;DHT22;73763;48.936;9.300;2024-02-28T09:56:43;8.20;95.10
83770;DHT22;73763;48.936;9.300;2024-02-28T09:59:09;8.30;95.30
83770;DHT22;73763;48.936;9.300;2024-02-28T10:01:40;8.30;94.90
83770;DHT22;73763;48.936;9.300;2024-02-28T10:04:07;8.40;94.60
83770;DHT22;73763;48.936;9.300;2024-02-28T10:06:33;8.40;94.90
83770;DHT22;73763;48.936;9.300;2024-02-28T10:08:59;8.40;94.80
83770;DHT22;73763;48.936;9.300;2024-02-28T10:11:24;8.40;94.50
83770;DHT22;73763;48.936;9.300;2024-02-28T10:13:52;8.30;94.40
83770;DHT22;73763;48.936;9.300;2024-02-28T10:16:17;8.30;94.60
83770;DHT22;73763;48.936;9.300;2024-02-28T10:18:43;8.30;94.90
83770;DHT22;73763;48.936;9.300;2024-02-28T10:21:10;8.30;94.90
83770;DHT22;73763;48.936;9.300;2024-02-28T10:23:36;8.30;95.00
83770;DHT22;73763;48.936;9.300;2024-02-28T10:26:02;8.30;94.80
83770;DHT22;73763;48.936;9.300;2024-02-28T10:28:27;8.30;94.60
83770;DHT22;73763;48.936;9.300;2024-02-28T10:30:54;8.20;94.70
83770;DHT22;73763;48.936;9.300;2024-02-28T10:33:19;8.10;94.90
83770;DHT22;73763;48.936;9.300;2024-02-28T10:35:45;8.10;95.30
83770;DHT22;73763;48.936;9.300;2024-02-28T10:38:12;8.00;95.60
83770;DHT22;73763;48.936;9.300;2024-02-28T10:40:41;8.00;95.60
83770;DHT22;73763;48.936;9.300;2024-02-28T10:43:09;8.00;95.40
83770;DHT22;73763;48.936;9.300;2024-02-28T10:45:38;7.80;95.60
83770;DHT22;73763;48.936;9.300;2024-02-28T10:48:05;7.80;95.80
83770;DHT22;73763;48.936;9.300;2024-02-28T10:50:30;7.80;96.00
83770;DHT22;73763;48.936;9.300;2024-02-28T10:53:01;7.80;95.80
83770;DHT22;73763;48.936;9.300;2024-02-28T10:55:34;7.90;95.60
83770;DHT22;73763;48.936;9.300;2024-02-28T10:58:06;7.90;95.60
83770;DHT22;73763;48.936;9.300;2024-02-28T11:00:33;8.00;95.60
83770;DHT22;73763;48.936;9.300;2024-02-28T11:02:59;8.00;95.50
83770;DHT22;73763;48.936;9.300;2024-02-28T11:05:35;8.00;95.20
83770;DHT22;73763;48.936;9.300;2024-02-28T11:08:01;8.00;95.30
83770;DHT22;73763;48.936;9.300;2024-02-28T11:10:31;8.00;95.50
83770;DHT22;73763;48.936;9.300;2024-02-28T11:12:57;8.00;95.10
83770;DHT22;73763;48.936;9.300;2024-02-28T11:15:25;8.10;95.10
83770;DHT22;73763;48.936;9.300;2024-02-28T11:17:50;8.10;95.30
83770;DHT22;73763;48.936;9.300;2024-02-28T11:20:16;8.10;95.00
83770;DHT22;73763;48.936;9.300;2024-02-28T11:22:42;8.10;94.90
83770;DHT22;73763;48.936;9.300;2024-02-28T11:25:08;8.00;94.90
83770;DHT22;73763;48.936;9.300;2024-02-28T11:27:33;7.90;95.10
83770;DHT22;73763;48.936;9.300;2024-02-28T11:29:59;7.90;95.20
83770;DHT22;73763;48.936;9.300;2024-02-28T11:32:25;8.00;95.10
83770;DHT22;73763;48.936;9.300;2024-02-28T11:34:50;7.90;95.50
83770;DHT22;73763;48.936;9.300;2024-02-28T11:37:16;8.00;95.20
83770;DHT22;73763;48.936;9.300;2024-02-28T11:39:46;8.00;95.10
83770;DHT22;73763;48.936;9.300;2024-02-28T11:42:13;8.00;95.40
83770;DHT22;73763;48.936;9.300;2024-02-28T11:44:39;8.00;94.80
83770;DHT22;73763;48.936;9.300;2024-02-28T11:47:05;8.00;94.60
83770;DHT22;73763;48.936;9.300;2024-02-28T11:49:33;8.00;94.80
83770;DHT22;73763;48.936;9.300;2024-02-28T11:51:58;8.00;94.80
83770;DHT22;73763;48.936;9.300;2024-02-28T11:54:24;8.10;94.60
83770;DHT22;73763;48.936;9.300;2024-02-28T11:56:49;8.10;95.00
83770;DHT22;73763;48.936;9.300;2024-02-28T11:59:15;8.10;94.70
83770;DHT22;73763;48.936;9.300;2024-02-28T12:01:41;8.20;94.60
83770;DHT22;73763;48.936;9.300;2024-02-28T12:04:07;8.30;94.70
83770;DHT22;73763;48.936;9.300;2024-02-28T12:06:37;8.40;94.20
83770;DHT22;73763;48.936;9.300;2024-02-28T12:09:04;8.50;93.90
83770;DHT22;73763;48.936;9.300;2024-02-28T12:11:32;8.50;94.00
83770;DHT22;73763;48.936;9.300;2024-02-28T12:13:58;8.60;93.60
83770;DHT22;73763;48.936;9.300;2024-02-28T12:16:27;8.70;93.30
83770;DHT22;73763;48.936;9.300;2024-02-28T12:18:53;8.80;93.10
83770;DHT22;73763;48.936;9.300;2024-02-28T12:21:19;8.90;92.90
83770;DHT22;73763;48.936;9.300;2024-02-28T12:23:46;9.00;93.00
83770;DHT22;73763;48.936;9.300;2024-02-28T12:26:12;9.00;92.80
83770;DHT22;73763;48.936;9.300;2024-02-28T12:28:37;9.10;92.90
83770;DHT22;73763;48.936;9.300;2024-02-28T12:31:03;9.10;92.50
83770;DHT22;73763;48.936;9.300;2024-02-28T12:33:28;9.20;92.30
83770;DHT22;73763;48.936;9.300;2024-02-28T12:35:54;9.30;92.50
83770;DHT22;73763;48.936;9.300;2024-02-28T12:38:19;9.30;92.20
83770;DHT22;73763;48.936;9.300;2024-02-28T12:40:45;9.30;91.90
83770;DHT22;73763;48.936;9.300;2024-02-28T12:43:10;9.30;91.90
83770;DHT22;73763;48.936;9.300;2024-02-28T12:45:36;9.30;91.90
83770;DHT22;73763;48.936;9.300;2024-02-28T12:48:02;9.20;91.60
83770;DHT22;73763;48.936;9.300;2024-02-28T12:50:27;9.20;92.40
83770;DHT22;73763;48.936;9.300;2024-02-28T12:52:53;9.20;91.90
83770;DHT22;73763;48.936;9.300;2024-02-28T12:55:18;9.20;91.60
83770;DHT22;73763;48.936;9.300;2024-02-28T12:57:44;9.20;91.80
83770;DHT22;73763;48.936;9.300;2024-02-28T13:00:10;9.20;91.90
83770;DHT22;73763;48.936;9.300;2024-02-28T13:02:35;9.10;91.60
83770;DHT22;73763;48.936;9.300;2024-02-28T13:05:01;9.00;91.80
83770;DHT22;73763;48.936;9.300;2024-02-28T13:07:26;9.10;92.00
83770;DHT22;73763;48.936;9.300;2024-02-28T13:09:52;9.20;91.90
83770;DHT22;73763;48.936;9.300;2024-02-28T13:12:17;9.30;91.40
83770;DHT22;73763;48.936;9.300;2024-02-28T13:14:43;9.40;91.30
83770;DHT22;73763;48.936;9.300;2024-02-28T13:17:08;9.40;91.20
83770;DHT22;73763;48.936;9.300;2024-02-28T13:19:34;9.50;91.10
83770;DHT22;73763;48.936;9.300;2024-02-28T13:21:59;9.60;90.80
83770;DHT22;73763;48.936;9.300;2024-02-28T13:24:25;9.50;90.40
83770;DHT22;73763;48.936;9.300;2024-02-28T13:26:50;9.60;90.50
83770;DHT22;73763;48.936;9.300;2024-02-28T13:29:16;9.60;90.70
83770;DHT22;73763;48.936;9.300;2024-02-28T13:31:41;9.70;90.50
83770;DHT22;73763;48.936;9.300;2024-02-28T13:34:07;9.60;90.10
83770;DHT22;73763;48.936;9.300;2024-02-28T13:36:32;9.50;90.20
83770;DHT22;73763;48.936;9.300;2024-02-28T13:38:58;9.40;90.10
83770;DHT22;73763;48.936;9.300;2024-02-28T13:41:23;9.50;90.40
83770;DHT22;73763;48.936;9.300;2024-02-28T13:43:49;9.40;90.20
83770;DHT22;73763;48.936;9.300;2024-02-28T13:46:14;9.30;90.10
83770;DHT22;73763;48.936;9.300;2024-02-28T13:48:40;9.30;90.30
83770;DHT22;73763;48.936;9.300;2024-02-28T13:51:05;9.20;90.50
83770;DHT22;73763;48.936;9.300;2024-02-28T13:53:31;9.20;90.30
83770;DHT22;73763;48.936;9.300;2024-02-28T13:55:56;9.20;91.10
83770;DHT22;73763;48.936;9.300;2024-02-28T13:58:22;9.40;90.70
83770;DHT22;73763;48.936;9.300;2024-02-28T14:00:47;9.50;90.20
83770;DHT22;73763;48.936;9.300;2024-02-28T14:03:13;9.50;90.30
83770;DHT22;73763;48.936;9.300;2024-02-28T14:05:39;9.50;90.10
83770;DHT22;73763;48.936;9.300;2024-02-28T14:08:05;9.30;90.00
83770;DHT22;73763;48.936;9.300;2024-02-28T14:10:31;9.10;90.40
83770;DHT22;73763;48.936;9.300;2024-02-28T14:12:56;9.10;90.80
83770;DHT22;73763;48.936;9.300;2024-02-28T14:15:22;9.20;91.00
83770;DHT22;73763;48.936;9.300;2024-02-28T14:17:48;9.20;90.40
83770;DHT22;73763;48.936;9.300;2024-02-28T14:20:14;9.10;90.30
83770;DHT22;73763;48.936;9.300;2024-02-28T14:22:42;8.90;90.50
83770;DHT22;73763;48.936;9.300;2024-02-28T14:25:16;8.80;91.30
83770;DHT22;73763;48.936;9.300;2024-02-28T14:27:44;8.80;91.80
83770;DHT22;73763;48.936;9.300;2024-02-28T14:30:10;8.80;92.00
83770;DHT22;73763;48.936;9.300;2024-02-28T14:32:36;8.90;91.60
83770;DHT22;73763;48.936;9.300;2024-02-28T14:35:06;8.80;91.70
83770;DHT22;73763;48.936;9.300;2024-02-28T14:37:33;8.70;91.90
83770;DHT22;73763;48.936;9.300;2024-02-28T14:40:03;8.70;91.40
83770;DHT22;73763;48.936;9.300;2024-02-28T14:42:29;8.60;91.70
83770;DHT22;73763;48.936;9.300;2024-02-28T14:44:54;8.70;92.70
83770;DHT22;73763;48.936;9.300;2024-02-28T14:47:20;8.70;91.90
83770;DHT22;73763;48.936;9.300;2024-02-28T14:49:46;8.60;92.00
83770;DHT22;73763;48.936;9.300;2024-02-28T14:52:11;8.50;92.60
83770;DHT22;73763;48.936;9.300;2024-02-28T14:54:37;8.60;92.30
83770;DHT22;73763;48.936;9.300;2024-02-28T14:57:03;8.60;92.00
83770;DHT22;73763;48.936;9.300;2024-02-28T14:59:28;8.70;92.10
83770;DHT22;73763;48.936;9.300;2024-02-28T15:01:54;8.70;92.20
83770;DHT22;73763;48.936;9.300;2024-02-28T15:04:19;8.60;92.20
83770;DHT22;73763;48.936;9.300;2024-02-28T15:06:45;8.70;92.30
83770;DHT22;73763;48.936;9.300;2024-02-28T15:09:10;8.70;92.50
83770;DHT22;73763;48.936;9.300;2024-02-28T15:11:36;8.70;92.10
83770;DHT22;73763;48.936;9.300;2024-02-28T15:14:01;8.70;91.90
83770;DHT22;73763;48.936;9.300;2024-02-28T15:16:27;8.60;91.50
83770;DHT22;73763;48.936;9.300;2024-02-28T15:18:52;8.60;92.00
83770;DHT22;73763;48.936;9.300;2024-02-28T15:21:18;8.60;92.60
83770;DHT22;73763;48.936;9.300;2024-02-28T15:23:43;8.50;92.80
83770;DHT22;73763;48.936;9.300;2024-02-28T15:26:09;8.40;92.50
83770;DHT22;73763;48.936;9.300;2024-02-28T15:28:34;8.40;92.50
83770;DHT22;73763;48.936;9.300;2024-02-28T15:31:00;8.40;92.60
83770;DHT22;73763;48.936;9.300;2024-02-28T15:33:25;8.40;92.60
83770;DHT22;73763;48.936;9.300;2024-02-28T15:35:51;8.30;92.30